createdAt,value
2019-04-25T00:01:07.751Z,16.01
2019-04-25T00:03:38.394Z,16.05
2019-04-25T00:06:07.562Z,16.02
2019-04-25T00:08:37.265Z,15.96
2019-04-25T00:11:06.233Z,15.90
2019-04-25T00:13:34.791Z,15.83
2019-04-25T00:16:03.641Z,15.72
2019-04-25T00:18:32.221Z,15.66
2019-04-25T00:21:02.362Z,15.45
2019-04-25T00:23:31.747Z,14.84
2019-04-25T00:26:04.637Z,14.70
2019-04-25T00:28:33.213Z,14.64
2019-04-25T00:31:02.282Z,14.76
2019-04-25T00:33:31.476Z,14.55
2019-04-25T00:36:03.523Z,14.34
2019-04-25T00:38:31.843Z,14.38
2019-04-25T00:41:01.727Z,14.39
2019-04-25T00:43:31.495Z,14.57
2019-04-25T00:46:01.519Z,14.56
2019-04-25T00:48:31.700Z,14.43
2019-04-25T00:51:01.889Z,14.19
2019-04-25T00:53:30.790Z,14.08
2019-04-25T00:56:01.434Z,13.94
2019-04-25T00:58:31.841Z,13.93
2019-04-25T01:01:07.913Z,13.83
2019-04-25T01:03:36.892Z,13.81
2019-04-25T01:06:05.378Z,13.74
2019-04-25T01:08:33.886Z,13.71
2019-04-25T01:11:02.393Z,13.70
2019-04-25T01:13:32.172Z,13.57
2019-04-25T01:16:03.692Z,13.66
2019-04-25T01:18:31.389Z,13.64
2019-04-25T01:21:00.391Z,13.58
2019-04-25T01:23:28.982Z,13.46
2019-04-25T01:25:57.505Z,13.72
2019-04-25T01:28:26.066Z,13.81
2019-04-25T01:30:55.123Z,13.95
2019-04-25T01:33:25.658Z,14.03
2019-04-25T01:35:58.683Z,13.97
2019-04-25T01:38:31.415Z,13.94
2019-04-25T01:41:17.446Z,13.92
2019-04-25T01:43:49.064Z,13.76
2019-04-25T01:46:17.821Z,13.77
2019-04-25T01:48:46.392Z,13.87
2019-04-25T01:51:15.267Z,13.86
2019-04-25T01:53:44.183Z,13.82
2019-04-25T01:56:13.609Z,13.87
2019-04-25T01:58:43.643Z,13.87
2019-04-25T02:01:14.227Z,13.85
2019-04-25T02:03:44.243Z,13.82
2019-04-25T02:06:13.677Z,13.82
2019-04-25T02:08:44.044Z,13.93
2019-04-25T02:11:14.551Z,13.89
2019-04-25T02:13:43.815Z,13.93
2019-04-25T02:16:14.216Z,13.95
2019-04-25T02:18:43.552Z,14.11
2019-04-25T02:21:13.742Z,14.22
2019-04-25T02:23:44.199Z,14.24
2019-04-25T02:26:16.760Z,14.32
2019-04-25T02:28:43.699Z,14.30
2019-04-25T02:31:17.521Z,14.34
2019-04-25T02:33:44.274Z,14.38
2019-04-25T02:36:15.094Z,14.34
2019-04-25T02:38:44.169Z,14.35
2019-04-25T02:41:14.790Z,14.32
2019-04-25T02:43:45.115Z,14.33
2019-04-25T02:46:15.344Z,14.30
2019-04-25T02:48:51.392Z,14.32
2019-04-25T02:51:24.155Z,14.24
2019-04-25T02:53:53.781Z,14.26
2019-04-25T02:56:33.236Z,14.33
2019-04-25T02:58:54.271Z,14.38
2019-04-25T03:01:26.123Z,14.44
2019-04-25T03:03:54.544Z,14.45
2019-04-25T03:06:25.038Z,14.26
2019-04-25T03:08:54.392Z,14.30
2019-04-25T03:11:24.497Z,14.31
2019-04-25T03:13:54.593Z,14.11
2019-04-25T03:16:25.099Z,14.34
2019-04-25T03:18:55.121Z,14.43
2019-04-25T03:21:25.396Z,14.45
2019-04-25T03:23:54.943Z,14.32
2019-04-25T03:26:23.654Z,14.29
2019-04-25T03:28:53.760Z,14.31
2019-04-25T03:31:26.755Z,14.28
2019-04-25T03:33:55.534Z,14.34
2019-04-25T03:36:23.839Z,14.34
2019-04-25T03:38:54.075Z,14.40
2019-04-25T03:41:24.437Z,14.21
2019-04-25T03:43:54.180Z,14.25
2019-04-25T03:46:23.329Z,14.20
2019-04-25T03:48:53.843Z,13.95
2019-04-25T03:51:23.865Z,14.03
2019-04-25T03:53:53.558Z,14.01
2019-04-25T03:56:22.242Z,14.06
2019-04-25T03:58:50.699Z,13.97
2019-04-25T04:01:19.286Z,13.90
2019-04-25T04:03:47.727Z,13.83
2019-04-25T04:06:16.226Z,13.75
2019-04-25T04:08:44.726Z,13.72
2019-04-25T04:11:14.538Z,13.66
2019-04-25T04:13:44.021Z,13.65
2019-04-25T04:16:15.609Z,13.60
2019-04-25T04:18:45.802Z,13.55
2019-04-25T04:21:33.254Z,13.56
2019-04-25T04:24:13.839Z,13.47
2019-04-25T04:26:43.124Z,13.35
2019-04-25T04:29:12.441Z,13.29
2019-04-25T04:31:43.144Z,13.01
2019-04-25T04:34:14.107Z,12.95
2019-04-25T04:36:43.657Z,12.77
2019-04-25T04:39:14.202Z,12.77
2019-04-25T04:41:43.651Z,12.80
2019-04-25T04:44:12.260Z,12.65
2019-04-25T04:46:43.898Z,12.61
2019-04-25T04:49:14.186Z,12.61
2019-04-25T04:51:44.320Z,12.67
2019-04-25T04:54:13.557Z,12.74
2019-04-25T04:56:43.844Z,12.56
2019-04-25T04:59:14.291Z,12.70
2019-04-25T05:01:47.141Z,12.72
2019-04-25T05:04:17.267Z,12.90
2019-04-25T05:06:47.370Z,13.15
2019-04-25T05:09:17.795Z,13.22
2019-04-25T05:11:46.529Z,13.56
2019-04-25T05:14:16.170Z,13.52
2019-04-25T05:16:44.760Z,13.82
2019-04-25T05:19:15.303Z,13.89
2019-04-25T05:21:45.503Z,13.89
2019-04-25T05:24:16.006Z,13.90
2019-04-25T05:26:44.102Z,14.10
2019-04-25T05:29:16.178Z,14.23
2019-04-25T05:31:45.590Z,14.32
2019-04-25T05:34:16.566Z,14.48
2019-04-25T05:36:44.607Z,14.56
2019-04-25T05:39:16.359Z,14.76
2019-04-25T05:41:50.808Z,14.87
2019-04-25T05:44:19.519Z,15.13
2019-04-25T05:46:48.077Z,15.28
2019-04-25T05:49:17.189Z,15.15
2019-04-25T05:51:45.856Z,15.04
2019-04-25T05:54:14.359Z,14.73
2019-04-25T05:56:43.778Z,14.72
2019-04-25T05:59:13.422Z,14.58
2019-04-25T06:01:43.458Z,14.64
2019-04-25T06:04:13.578Z,14.46
2019-04-25T06:06:42.187Z,14.56
2019-04-25T06:09:18.027Z,14.58
2019-04-25T06:11:56.700Z,14.54
2019-04-25T06:14:26.220Z,14.74
2019-04-25T06:16:56.526Z,14.43
2019-04-25T06:19:39.093Z,14.55
2019-04-25T06:22:09.253Z,14.63
2019-04-25T06:24:45.087Z,14.70
2019-04-25T06:27:15.299Z,14.82
2019-04-25T06:29:57.376Z,15.00
2019-04-25T06:32:15.786Z,15.24
2019-04-25T06:34:44.533Z,15.47
2019-04-25T06:37:13.925Z,15.54
2019-04-25T06:39:44.265Z,15.54
2019-04-25T06:42:13.809Z,15.70
2019-04-25T06:44:47.200Z,15.31
2019-04-25T06:47:21.190Z,15.14
2019-04-25T06:49:49.910Z,15.55
2019-04-25T06:52:18.388Z,15.43
2019-04-25T06:54:46.875Z,15.47
2019-04-25T06:57:15.311Z,15.75
2019-04-25T06:59:44.421Z,16.17
2019-04-25T07:02:13.969Z,16.03
2019-04-25T07:04:43.481Z,16.42
2019-04-25T07:07:14.833Z,16.27
2019-04-25T07:09:43.508Z,16.13
2019-04-25T07:12:13.463Z,16.10
2019-04-25T07:14:43.876Z,16.20
2019-04-25T07:17:14.142Z,16.34
2019-04-25T07:19:44.048Z,16.55
2019-04-25T07:22:15.203Z,16.46
2019-04-25T07:24:43.967Z,16.51
2019-04-25T07:27:20.091Z,16.47
2019-04-25T07:29:56.631Z,16.56
2019-04-25T07:32:34.153Z,16.73
2019-04-25T07:35:03.622Z,16.94
2019-04-25T07:37:36.129Z,17.00
2019-04-25T07:40:04.105Z,17.19
2019-04-25T07:42:34.261Z,16.89
2019-04-25T07:45:04.198Z,17.12
2019-04-25T07:47:34.872Z,17.37
2019-04-25T07:50:04.031Z,16.89
2019-04-25T07:52:33.578Z,17.19
2019-04-25T07:55:03.785Z,17.49
2019-04-25T07:57:33.519Z,17.53
2019-04-25T08:00:03.471Z,17.36
2019-04-25T08:02:34.145Z,17.79
2019-04-25T08:05:05.492Z,17.68
2019-04-25T08:07:34.991Z,17.82
2019-04-25T08:10:07.014Z,17.86
2019-04-25T08:12:35.761Z,17.93
2019-04-25T08:15:08.218Z,18.19
2019-04-25T08:17:47.044Z,18.10
2019-04-25T08:20:16.694Z,17.96
2019-04-25T08:22:55.687Z,18.47
2019-04-25T08:25:15.995Z,17.99
2019-04-25T08:27:45.096Z,18.28
2019-04-25T08:30:14.106Z,18.35
2019-04-25T08:32:44.075Z,18.23
2019-04-25T08:35:13.949Z,18.29
2019-04-25T08:37:44.095Z,18.23
2019-04-25T08:40:13.673Z,18.18
2019-04-25T08:42:44.037Z,18.42
2019-04-25T08:45:13.400Z,18.59
2019-04-25T08:47:43.812Z,18.89
2019-04-25T08:50:26.391Z,19.15
2019-04-25T08:52:44.423Z,18.98
2019-04-25T08:55:31.497Z,19.27
2019-04-25T08:58:20.990Z,19.28
2019-04-25T09:01:09.190Z,18.95
2019-04-25T09:03:57.214Z,19.37
2019-04-25T09:06:25.778Z,19.64
2019-04-25T09:08:54.263Z,19.61
2019-04-25T09:11:24.386Z,19.58
2019-04-25T09:13:53.757Z,19.72
2019-04-25T09:16:23.961Z,20.06
2019-04-25T09:18:53.928Z,19.87
2019-04-25T09:21:23.814Z,20.19
2019-04-25T09:23:53.574Z,20.24
2019-04-25T09:26:24.030Z,20.35
2019-04-25T09:28:53.652Z,20.27
2019-04-25T09:31:23.577Z,20.22
2019-04-25T09:33:54.212Z,20.04
2019-04-25T09:36:24.065Z,19.93
2019-04-25T09:38:54.300Z,19.56
2019-04-25T09:41:23.658Z,19.71
2019-04-25T09:43:54.987Z,20.30
2019-04-25T09:46:25.403Z,20.52
2019-04-25T09:49:01.684Z,20.01
2019-04-25T09:51:35.901Z,20.46
2019-04-25T09:54:09.091Z,20.01
2019-04-25T09:56:46.018Z,20.70
2019-04-25T09:59:27.294Z,21.16
2019-04-25T10:01:49.690Z,21.42
2019-04-25T10:04:18.217Z,20.95
2019-04-25T10:06:47.576Z,21.27
2019-04-25T10:09:16.398Z,21.53
2019-04-25T10:11:46.400Z,21.15
2019-04-25T10:14:24.532Z,21.10
2019-04-25T10:16:53.875Z,21.33
2019-04-25T10:19:23.551Z,21.73
2019-04-25T10:21:53.890Z,21.82
2019-04-25T10:24:22.338Z,21.69
2019-04-25T10:26:51.088Z,21.80
2019-04-25T10:29:19.643Z,21.89
2019-04-25T10:31:49.191Z,21.77
2019-04-25T10:34:18.124Z,21.46
2019-04-25T10:36:46.857Z,21.46
2019-04-25T10:39:15.335Z,22.54
2019-04-25T10:41:46.183Z,23.34
2019-04-25T10:44:14.242Z,23.49
2019-04-25T10:46:45.679Z,23.71
2019-04-25T10:49:14.546Z,24.72
2019-04-25T10:51:44.680Z,24.39
2019-04-25T10:54:14.577Z,25.76
2019-04-25T10:56:45.722Z,26.46
2019-04-25T10:59:14.462Z,26.03
2019-04-25T11:01:45.739Z,25.77
2019-04-25T11:04:15.209Z,26.35
2019-04-25T11:06:45.413Z,26.30
2019-04-25T11:09:18.045Z,25.75
2019-04-25T11:11:46.624Z,26.68
2019-04-25T11:14:15.604Z,27.34
2019-04-25T11:16:45.546Z,27.33
2019-04-25T11:19:15.339Z,27.32
2019-04-25T11:21:45.181Z,27.20
2019-04-25T11:24:14.380Z,28.45
2019-04-25T11:26:47.087Z,27.20
2019-04-25T11:29:14.952Z,26.20
2019-04-25T11:31:46.182Z,28.39
2019-04-25T11:34:16.810Z,29.16
2019-04-25T11:36:45.568Z,27.56
2019-04-25T11:39:33.303Z,28.61
2019-04-25T11:42:02.622Z,29.18
2019-04-25T11:44:31.097Z,30.00
2019-04-25T11:46:59.625Z,29.61
2019-04-25T11:49:29.422Z,29.88
2019-04-25T11:51:57.943Z,28.24
2019-04-25T11:54:26.437Z,29.42
2019-04-25T11:56:56.475Z,29.58
2019-04-25T11:59:25.170Z,29.34
2019-04-25T12:01:54.795Z,30.51
2019-04-25T12:04:24.020Z,31.73
2019-04-25T12:06:53.186Z,30.42
2019-04-25T12:09:23.951Z,30.30
2019-04-25T12:11:54.289Z,30.99
2019-04-25T12:14:23.574Z,30.66
2019-04-25T12:16:53.230Z,31.09
2019-04-25T12:19:33.127Z,30.70
2019-04-25T12:21:53.828Z,31.59
2019-04-25T12:24:23.897Z,31.87
2019-04-25T12:26:54.834Z,32.85
2019-04-25T12:29:24.415Z,32.85
2019-04-25T12:31:54.806Z,31.59
2019-04-25T12:34:24.285Z,31.59
2019-04-25T12:36:54.432Z,32.84
2019-04-25T12:39:24.303Z,33.99
2019-04-25T12:41:54.429Z,32.88
2019-04-25T12:44:33.529Z,32.88
2019-04-25T12:47:09.448Z,33.74
2019-04-25T12:49:38.205Z,33.74
2019-04-25T12:52:06.694Z,34.01
2019-04-25T12:54:35.207Z,33.77
2019-04-25T12:57:05.541Z,33.10
2019-04-25T12:59:34.240Z,34.57
2019-04-25T13:02:04.471Z,34.94
2019-04-25T13:04:34.878Z,34.64
2019-04-25T13:07:04.082Z,34.77
2019-04-25T13:09:34.010Z,33.83
2019-04-25T13:12:04.377Z,34.70
2019-04-25T13:14:33.171Z,34.94
2019-04-25T13:17:01.669Z,36.19
2019-04-25T13:19:30.191Z,35.80
2019-04-25T13:21:58.647Z,35.80
2019-04-25T13:24:27.121Z,36.79
2019-04-25T13:26:57.213Z,36.03
2019-04-25T13:29:43.319Z,35.60
2019-04-25T13:32:29.631Z,35.69
2019-04-25T13:34:59.828Z,35.90
2019-04-25T13:37:28.312Z,36.59
2019-04-25T13:39:58.112Z,35.57
2019-04-25T13:42:26.810Z,36.03
2019-04-25T13:44:56.598Z,35.73
2019-04-25T13:47:28.267Z,35.73
2019-04-25T13:49:55.528Z,35.72
2019-04-25T13:52:25.034Z,35.65
2019-04-25T13:54:53.846Z,36.03
2019-04-25T13:57:23.482Z,34.99
2019-04-25T13:59:54.143Z,35.93
2019-04-25T14:02:23.177Z,35.70
2019-04-25T14:04:51.672Z,35.59
2019-04-25T14:07:20.637Z,36.94
2019-04-25T14:09:50.396Z,34.96
2019-04-25T14:12:18.934Z,36.03
2019-04-25T14:14:47.424Z,35.37
2019-04-25T14:17:33.902Z,36.11
2019-04-25T14:20:04.347Z,36.07
2019-04-25T14:22:33.068Z,37.04
2019-04-25T14:25:01.721Z,35.59
2019-04-25T14:27:30.555Z,36.07
2019-04-25T14:29:59.088Z,35.53
2019-04-25T14:32:28.915Z,35.45
2019-04-25T14:34:57.757Z,29.01
2019-04-25T14:37:29.262Z,29.25
2019-04-25T14:39:56.461Z,29.27
2019-04-25T14:42:25.004Z,28.07
2019-04-25T14:44:53.501Z,27.65
2019-04-25T14:47:22.292Z,27.84
2019-04-25T14:49:51.619Z,27.75
2019-04-25T14:52:20.133Z,27.19
2019-04-25T14:54:52.982Z,26.75
2019-04-25T14:57:24.125Z,26.69
2019-04-25T14:59:53.071Z,26.69
2019-04-25T15:02:23.165Z,26.29
2019-04-25T15:04:51.805Z,26.42
2019-04-25T15:07:20.266Z,26.58
2019-04-25T15:09:48.773Z,26.63
2019-04-25T15:12:17.888Z,26.56
2019-04-25T15:14:46.583Z,26.29
2019-04-25T15:17:15.300Z,26.30
2019-04-25T15:19:43.872Z,26.35
2019-04-25T15:22:12.890Z,26.21
2019-04-25T15:24:41.389Z,26.07
2019-04-25T15:27:09.852Z,26.33
2019-04-25T15:29:38.537Z,26.28
2019-04-25T15:32:08.650Z,26.31
2019-04-25T15:34:38.832Z,26.25
2019-04-25T15:37:11.636Z,25.83
2019-04-25T15:39:41.869Z,25.86
2019-04-25T15:42:28.147Z,25.84
2019-04-25T15:45:04.237Z,25.76
2019-04-25T15:47:34.038Z,25.54
2019-04-25T15:50:02.665Z,25.69
2019-04-25T15:52:31.510Z,25.58
2019-04-25T15:55:07.470Z,25.56
2019-04-25T15:57:32.557Z,25.47
2019-04-25T16:00:01.021Z,25.56
2019-04-25T16:02:30.240Z,25.59
2019-04-25T16:04:58.848Z,25.36
2019-04-25T16:07:27.367Z,25.27
2019-04-25T16:09:55.863Z,25.37
2019-04-25T16:12:24.546Z,25.38
2019-04-25T16:14:53.032Z,25.29
2019-04-25T16:17:21.517Z,25.31
2019-04-25T16:19:50.006Z,25.20
2019-04-25T16:22:18.520Z,25.24
2019-04-25T16:24:47.295Z,25.22
2019-04-25T16:27:16.003Z,24.93
2019-04-25T16:29:44.442Z,24.99
2019-04-25T16:32:20.451Z,24.93
2019-04-25T16:34:44.814Z,25.12
2019-04-25T16:37:13.817Z,25.14
2019-04-25T16:39:43.245Z,24.99
2019-04-25T16:42:12.544Z,24.84
2019-04-25T16:44:41.367Z,24.80
2019-04-25T16:47:10.159Z,24.39
2019-04-25T16:49:39.145Z,24.91
2019-04-25T16:52:09.405Z,24.61
2019-04-25T16:54:38.105Z,24.32
2019-04-25T16:57:06.854Z,24.22
2019-04-25T16:59:35.565Z,24.31
2019-04-25T17:02:04.440Z,24.03
2019-04-25T17:04:33.271Z,23.69
2019-04-25T17:07:01.873Z,23.63
2019-04-25T17:09:30.581Z,23.52
2019-04-25T17:11:59.424Z,23.56
2019-04-25T17:14:39.495Z,24.11
2019-04-25T17:17:12.625Z,23.77
2019-04-25T17:19:52.052Z,23.51
2019-04-25T17:22:21.049Z,23.57
2019-04-25T17:24:49.506Z,23.41
2019-04-25T17:27:18.361Z,23.21
2019-04-25T17:29:46.932Z,23.28
2019-04-25T17:32:46.772Z,23.07
2019-04-25T17:35:05.382Z,23.12
2019-04-25T17:37:36.276Z,22.75
2019-04-25T17:40:13.276Z,22.87
2019-04-25T17:42:41.744Z,22.50
2019-04-25T17:45:12.478Z,22.69
2019-04-25T17:47:52.359Z,22.38
2019-04-25T17:50:11.531Z,22.48
2019-04-25T17:52:40.645Z,22.30
2019-04-25T17:55:09.752Z,21.96
2019-04-25T17:57:38.430Z,21.76
2019-04-25T18:00:09.406Z,21.73
2019-04-25T18:02:39.141Z,21.91
2019-04-25T18:05:07.767Z,21.73
2019-04-25T18:07:36.477Z,21.28
2019-04-25T18:10:06.703Z,21.12
2019-04-25T18:12:35.528Z,20.87
2019-04-25T18:15:07.051Z,20.67
2019-04-25T18:17:35.782Z,20.44
2019-04-25T18:20:08.023Z,20.37
2019-04-25T18:22:50.100Z,20.35
2019-04-25T18:25:20.318Z,20.37
2019-04-25T18:28:05.736Z,20.22
2019-04-25T18:30:35.626Z,20.11
2019-04-25T18:33:18.196Z,20.04
2019-04-25T18:35:48.360Z,19.80
2019-04-25T18:38:21.095Z,19.60
2019-04-25T18:40:54.206Z,19.65
2019-04-25T18:43:24.468Z,19.44
2019-04-25T18:45:54.865Z,19.35
2019-04-25T18:48:23.374Z,19.22
2019-04-25T18:50:51.891Z,18.99
2019-04-25T18:53:39.198Z,18.88
2019-04-25T18:56:18.421Z,18.75
2019-04-25T18:59:05.066Z,18.68
2019-04-25T19:01:35.239Z,18.53
2019-04-25T19:04:17.707Z,18.47
2019-04-25T19:06:55.129Z,18.39
2019-04-25T19:09:16.765Z,18.34
2019-04-25T19:11:45.344Z,18.45
2019-04-25T19:14:13.853Z,18.44
2019-04-25T19:16:43.017Z,18.32
2019-04-25T19:19:11.534Z,18.13
2019-04-25T19:21:40.706Z,18.03
2019-04-25T19:24:10.164Z,17.95
2019-04-25T19:26:40.689Z,17.95
2019-04-25T19:29:08.893Z,17.94
2019-04-25T19:31:37.415Z,17.94
2019-04-25T19:34:05.967Z,17.94
2019-04-25T19:36:34.559Z,17.82
2019-04-25T19:39:04.643Z,17.84
2019-04-25T19:41:37.686Z,17.80
2019-04-25T19:44:08.017Z,17.73
2019-04-25T19:46:38.446Z,17.65
2019-04-25T19:49:07.767Z,17.59
2019-04-25T19:51:36.601Z,17.58
2019-04-25T19:54:06.236Z,17.51
2019-04-25T19:56:35.228Z,17.75
2019-04-25T19:59:04.031Z,17.60
2019-04-25T20:01:32.859Z,17.58
2019-04-25T20:04:10.100Z,17.71
2019-04-25T20:06:56.600Z,17.68
2019-04-25T20:09:43.814Z,17.90
2019-04-25T20:12:13.715Z,17.79
2019-04-25T20:14:43.028Z,17.75
2019-04-25T20:17:12.947Z,17.84
2019-04-25T20:19:41.461Z,17.72
2019-04-25T20:22:09.994Z,17.71
2019-04-25T20:24:38.503Z,17.82
2019-04-25T20:27:06.976Z,17.77
2019-04-25T20:29:35.478Z,17.99
2019-04-25T20:32:06.956Z,18.03
2019-04-25T20:34:34.334Z,17.96
2019-04-25T20:37:03.250Z,17.92
2019-04-25T20:39:31.743Z,17.94
2019-04-25T20:42:00.375Z,17.96
2019-04-25T20:44:28.879Z,18.08
2019-04-25T20:46:57.871Z,18.04
2019-04-25T20:49:26.412Z,18.01
2019-04-25T20:51:54.981Z,17.99
2019-04-25T20:54:23.618Z,17.97
2019-04-25T20:56:52.862Z,17.99
2019-04-25T20:59:21.600Z,18.04
2019-04-25T21:01:50.117Z,17.95
2019-04-25T21:04:36.671Z,17.92
2019-04-25T21:07:05.387Z,17.93
2019-04-25T21:09:33.839Z,17.85
2019-04-25T21:12:03.276Z,17.78
2019-04-25T21:14:42.932Z,17.72
2019-04-25T21:17:13.073Z,17.74
2019-04-25T21:19:48.656Z,17.59
2019-04-25T21:22:16.313Z,17.53
2019-04-25T21:24:44.749Z,17.38
2019-04-25T21:27:13.350Z,17.54
2019-04-25T21:29:41.872Z,17.51
2019-04-25T21:32:10.559Z,17.55
2019-04-25T21:34:39.018Z,17.63
2019-04-25T21:37:09.752Z,17.62
2019-04-25T21:39:44.162Z,17.61
2019-04-25T21:42:14.588Z,17.55
2019-04-25T21:44:43.333Z,17.56
2019-04-25T21:47:11.836Z,17.54
2019-04-25T21:49:40.694Z,17.67
2019-04-25T21:52:09.176Z,17.52
2019-04-25T21:54:38.151Z,17.63
2019-04-25T21:57:06.942Z,17.61
2019-04-25T21:59:35.524Z,17.66
2019-04-25T22:02:04.895Z,17.57
2019-04-25T22:04:39.771Z,17.64
2019-04-25T22:07:04.049Z,17.69
2019-04-25T22:09:33.654Z,17.68
2019-04-25T22:12:03.267Z,17.76
2019-04-25T22:14:31.852Z,18.02
2019-04-25T22:17:00.918Z,17.76
2019-04-25T22:19:30.348Z,17.96
2019-04-25T22:21:59.099Z,18.04
2019-04-25T22:24:27.613Z,17.90
2019-04-25T22:26:58.770Z,17.90
2019-04-25T22:29:27.551Z,18.05
2019-04-25T22:32:07.487Z,17.92
2019-04-25T22:34:54.043Z,18.06
2019-04-25T22:37:22.670Z,17.86
2019-04-25T22:39:51.416Z,17.66
2019-04-25T22:42:19.958Z,17.63
2019-04-25T22:44:48.634Z,17.63
2019-04-25T22:47:17.687Z,17.57
2019-04-25T22:49:46.361Z,17.53
2019-04-25T22:52:15.357Z,17.44
2019-04-25T22:54:44.090Z,17.47
2019-04-25T22:57:13.014Z,17.38
2019-04-25T22:59:41.913Z,17.31
2019-04-25T23:02:12.058Z,17.22
2019-04-25T23:05:04.298Z,17.15
2019-04-25T23:07:21.627Z,17.11
2019-04-25T23:09:51.203Z,17.33
2019-04-25T23:12:20.248Z,17.25
2019-04-25T23:14:48.758Z,17.22
2019-04-25T23:17:17.242Z,17.02
2019-04-25T23:19:46.107Z,16.95
2019-04-25T23:22:14.666Z,17.07
2019-04-25T23:24:44.766Z,17.03
2019-04-25T23:27:14.884Z,17.05
2019-04-25T23:29:43.315Z,16.98
2019-04-25T23:32:12.439Z,16.98
2019-04-25T23:34:41.041Z,16.99
2019-04-25T23:37:09.514Z,17.00
2019-04-25T23:39:38.233Z,17.01
2019-04-25T23:42:07.301Z,17.03
2019-04-25T23:44:36.180Z,16.94
2019-04-25T23:47:05.948Z,16.97
2019-04-25T23:49:34.862Z,16.91
2019-04-25T23:52:03.651Z,16.98
2019-04-25T23:54:32.587Z,16.94
2019-04-25T23:57:01.363Z,16.99
2019-04-25T23:59:29.814Z,16.84
